sensor_id;sensor_type;location;lat;lon;timestamp;P1;durP1;ratioP1;P2;durP2;ratioP2
20802;SDS011;10562;-33.856;151.182;2023-09-30T00:02:10;8.32;;;5.32;;
20802;SDS011;10562;-33.856;151.182;2023-09-30T00:04:40;10.23;;;5.70;;
20802;SDS011;10562;-33.856;151.182;2023-09-30T00:07:11;9.02;;;5.82;;
20802;SDS011;10562;-33.856;151.182;2023-09-30T00:09:44;8.98;;;5.60;;
20802;SDS011;10562;-33.856;151.182;2023-09-30T00:12:15;8.63;;;5.75;;
20802;SDS011;10562;-33.856;151.182;2023-09-30T00:14:48;8.88;;;5.70;;
20802;SDS011;10562;-33.856;151.182;2023-09-30T00:17:19;9.98;;;5.13;;
20802;SDS011;10562;-33.856;151.182;2023-09-30T00:19:50;9.63;;;5.13;;
20802;SDS011;10562;-33.856;151.182;2023-09-30T00:22:21;6.88;;;4.72;;
20802;SDS011;10562;-33.856;151.182;2023-09-30T00:24:53;8.02;;;4.93;;
20802;SDS011;10562;-33.856;151.182;2023-09-30T00:27:24;7.25;;;4.90;;
20802;SDS011;10562;-33.856;151.182;2023-09-30T00:29:55;8.27;;;4.82;;
20802;SDS011;10562;-33.856;151.182;2023-09-30T00:32:26;11.10;;;4.90;;
20802;SDS011;10562;-33.856;151.182;2023-09-30T00:34:57;8.00;;;4.70;;
20802;SDS011;10562;-33.856;151.182;2023-09-30T00:37:29;8.38;;;4.55;;
20802;SDS011;10562;-33.856;151.182;2023-09-30T00:40:02;5.75;;;4.00;;
20802;SDS011;10562;-33.856;151.182;2023-09-30T00:42:36;5.45;;;3.88;;
20802;SDS011;10562;-33.856;151.182;2023-09-30T00:45:07;8.82;;;4.00;;
20802;SDS011;10562;-33.856;151.182;2023-09-30T00:47:39;7.35;;;4.13;;
20802;SDS011;10562;-33.856;151.182;2023-09-30T00:50:10;9.60;;;4.68;;
20802;SDS011;10562;-33.856;151.182;2023-09-30T00:52:41;7.43;;;4.70;;
20802;SDS011;10562;-33.856;151.182;2023-09-30T00:55:16;8.85;;;4.68;;
20802;SDS011;10562;-33.856;151.182;2023-09-30T00:57:47;7.80;;;4.47;;
20802;SDS011;10562;-33.856;151.182;2023-09-30T01:00:19;9.02;;;4.10;;
20802;SDS011;10562;-33.856;151.182;2023-09-30T01:02:51;9.68;;;4.15;;
20802;SDS011;10562;-33.856;151.182;2023-09-30T01:05:23;9.15;;;4.25;;
20802;SDS011;10562;-33.856;151.182;2023-09-30T01:07:53;9.63;;;4.07;;
20802;SDS011;10562;-33.856;151.182;2023-09-30T01:10:26;10.02;;;4.72;;
20802;SDS011;10562;-33.856;151.182;2023-09-30T01:12:57;9.50;;;4.40;;
20802;SDS011;10562;-33.856;151.182;2023-09-30T01:15:29;9.55;;;4.28;;
20802;SDS011;10562;-33.856;151.182;2023-09-30T01:17:59;7.78;;;4.20;;
20802;SDS011;10562;-33.856;151.182;2023-09-30T01:20:30;11.63;;;5.10;;
20802;SDS011;10562;-33.856;151.182;2023-09-30T01:23:03;11.27;;;4.90;;
20802;SDS011;10562;-33.856;151.182;2023-09-30T01:25:38;10.65;;;4.88;;
20802;SDS011;10562;-33.856;151.182;2023-09-30T01:28:10;7.15;;;4.65;;
20802;SDS011;10562;-33.856;151.182;2023-09-30T01:30:42;13.85;;;5.13;;
20802;SDS011;10562;-33.856;151.182;2023-09-30T01:33:13;12.02;;;5.07;;
20802;SDS011;10562;-33.856;151.182;2023-09-30T01:35:45;12.45;;;5.07;;
20802;SDS011;10562;-33.856;151.182;2023-09-30T01:38:17;10.35;;;5.30;;
20802;SDS011;10562;-33.856;151.182;2023-09-30T01:40:48;11.13;;;5.20;;
20802;SDS011;10562;-33.856;151.182;2023-09-30T01:43:20;15.55;;;5.60;;
20802;SDS011;10562;-33.856;151.182;2023-09-30T01:45:51;13.70;;;5.68;;
20802;SDS011;10562;-33.856;151.182;2023-09-30T01:48:21;11.98;;;5.55;;
20802;SDS011;10562;-33.856;151.182;2023-09-30T01:50:52;11.73;;;5.30;;
20802;SDS011;10562;-33.856;151.182;2023-09-30T01:53:25;11.13;;;5.10;;
20802;SDS011;10562;-33.856;151.182;2023-09-30T01:55:56;13.43;;;5.00;;
20802;SDS011;10562;-33.856;151.182;2023-09-30T01:58:26;10.63;;;5.07;;
20802;SDS011;10562;-33.856;151.182;2023-09-30T02:01:01;13.50;;;5.00;;
20802;SDS011;10562;-33.856;151.182;2023-09-30T02:03:32;12.00;;;5.20;;
20802;SDS011;10562;-33.856;151.182;2023-09-30T02:06:03;11.75;;;4.93;;
20802;SDS011;10562;-33.856;151.182;2023-09-30T02:08:36;8.65;;;4.97;;
20802;SDS011;10562;-33.856;151.182;2023-09-30T02:11:07;11.80;;;5.28;;
20802;SDS011;10562;-33.856;151.182;2023-09-30T02:13:39;11.75;;;5.22;;
20802;SDS011;10562;-33.856;151.182;2023-09-30T02:16:14;13.70;;;5.53;;
20802;SDS011;10562;-33.856;151.182;2023-09-30T02:18:44;16.48;;;5.63;;
20802;SDS011;10562;-33.856;151.182;2023-09-30T02:21:16;12.80;;;5.32;;
20802;SDS011;10562;-33.856;151.182;2023-09-30T02:23:50;10.90;;;5.05;;
20802;SDS011;10562;-33.856;151.182;2023-09-30T02:26:21;12.25;;;5.15;;
20802;SDS011;10562;-33.856;151.182;2023-09-30T02:28:53;13.68;;;5.20;;
20802;SDS011;10562;-33.856;151.182;2023-09-30T02:31:24;12.02;;;5.22;;
20802;SDS011;10562;-33.856;151.182;2023-09-30T02:33:55;13.40;;;5.38;;
20802;SDS011;10562;-33.856;151.182;2023-09-30T02:36:26;14.25;;;6.32;;
20802;SDS011;10562;-33.856;151.182;2023-09-30T02:38:58;12.32;;;5.50;;
20802;SDS011;10562;-33.856;151.182;2023-09-30T02:41:29;15.30;;;5.38;;
20802;SDS011;10562;-33.856;151.182;2023-09-30T02:44:00;10.77;;;4.60;;
20802;SDS011;10562;-33.856;151.182;2023-09-30T02:46:31;10.80;;;4.60;;
20802;SDS011;10562;-33.856;151.182;2023-09-30T02:49:02;11.10;;;5.07;;
20802;SDS011;10562;-33.856;151.182;2023-09-30T02:51:33;11.68;;;4.72;;
20802;SDS011;10562;-33.856;151.182;2023-09-30T02:54:06;11.07;;;5.05;;
20802;SDS011;10562;-33.856;151.182;2023-09-30T02:56:41;13.13;;;4.80;;
20802;SDS011;10562;-33.856;151.182;2023-09-30T02:59:13;12.73;;;5.07;;
20802;SDS011;10562;-33.856;151.182;2023-09-30T03:01:45;8.82;;;4.55;;
20802;SDS011;10562;-33.856;151.182;2023-09-30T03:04:16;9.35;;;4.53;;
20802;SDS011;10562;-33.856;151.182;2023-09-30T03:06:47;11.40;;;4.65;;
20802;SDS011;10562;-33.856;151.182;2023-09-30T03:09:20;12.25;;;5.03;;
20802;SDS011;10562;-33.856;151.182;2023-09-30T03:11:50;9.02;;;4.55;;
20802;SDS011;10562;-33.856;151.182;2023-09-30T03:14:22;12.07;;;4.88;;
20802;SDS011;10562;-33.856;151.182;2023-09-30T03:16:53;14.55;;;4.70;;
20802;SDS011;10562;-33.856;151.182;2023-09-30T03:19:23;13.38;;;4.88;;
20802;SDS011;10562;-33.856;151.182;2023-09-30T03:21:54;10.52;;;4.53;;
20802;SDS011;10562;-33.856;151.182;2023-09-30T03:24:27;12.90;;;4.57;;
20802;SDS011;10562;-33.856;151.182;2023-09-30T03:26:57;14.95;;;5.30;;
20802;SDS011;10562;-33.856;151.182;2023-09-30T03:29:28;16.35;;;5.40;;
20802;SDS011;10562;-33.856;151.182;2023-09-30T03:31:59;11.70;;;4.90;;
20802;SDS011;10562;-33.856;151.182;2023-09-30T03:34:30;14.70;;;5.00;;
20802;SDS011;10562;-33.856;151.182;2023-09-30T03:37:02;12.50;;;5.10;;
20802;SDS011;10562;-33.856;151.182;2023-09-30T03:39:35;9.18;;;4.72;;
20802;SDS011;10562;-33.856;151.182;2023-09-30T03:42:07;11.93;;;4.90;;
20802;SDS011;10562;-33.856;151.182;2023-09-30T03:44:37;11.40;;;4.80;;
20802;SDS011;10562;-33.856;151.182;2023-09-30T03:47:08;12.15;;;4.57;;
20802;SDS011;10562;-33.856;151.182;2023-09-30T03:49:39;8.70;;;4.80;;
20802;SDS011;10562;-33.856;151.182;2023-09-30T03:52:10;10.18;;;4.90;;
20802;SDS011;10562;-33.856;151.182;2023-09-30T03:54:42;16.05;;;4.97;;
20802;SDS011;10562;-33.856;151.182;2023-09-30T03:57:14;10.25;;;4.72;;
20802;SDS011;10562;-33.856;151.182;2023-09-30T03:59:45;12.75;;;5.05;;
20802;SDS011;10562;-33.856;151.182;2023-09-30T04:02:16;8.15;;;4.57;;
20802;SDS011;10562;-33.856;151.182;2023-09-30T04:04:47;9.93;;;4.43;;
20802;SDS011;10562;-33.856;151.182;2023-09-30T04:07:20;11.52;;;4.75;;
20802;SDS011;10562;-33.856;151.182;2023-09-30T04:09:56;11.38;;;4.65;;
20802;SDS011;10562;-33.856;151.182;2023-09-30T04:12:27;10.70;;;4.47;;
20802;SDS011;10562;-33.856;151.182;2023-09-30T04:14:58;10.55;;;4.70;;
20802;SDS011;10562;-33.856;151.182;2023-09-30T04:17:31;11.60;;;4.07;;
20802;SDS011;10562;-33.856;151.182;2023-09-30T04:20:03;11.70;;;4.40;;
20802;SDS011;10562;-33.856;151.182;2023-09-30T04:22:42;10.48;;;4.43;;
20802;SDS011;10562;-33.856;151.182;2023-09-30T04:25:16;13.55;;;4.35;;
20802;SDS011;10562;-33.856;151.182;2023-09-30T04:27:48;11.70;;;4.32;;
20802;SDS011;10562;-33.856;151.182;2023-09-30T04:30:19;10.48;;;4.15;;
20802;SDS011;10562;-33.856;151.182;2023-09-30T04:32:49;14.52;;;4.53;;
20802;SDS011;10562;-33.856;151.182;2023-09-30T04:35:20;13.02;;;4.03;;
20802;SDS011;10562;-33.856;151.182;2023-09-30T04:37:52;11.13;;;4.43;;
20802;SDS011;10562;-33.856;151.182;2023-09-30T04:40:26;9.93;;;4.07;;
20802;SDS011;10562;-33.856;151.182;2023-09-30T04:42:59;17.27;;;4.53;;
20802;SDS011;10562;-33.856;151.182;2023-09-30T04:45:30;11.77;;;4.50;;
20802;SDS011;10562;-33.856;151.182;2023-09-30T04:48:00;9.23;;;4.03;;
20802;SDS011;10562;-33.856;151.182;2023-09-30T04:50:31;12.48;;;4.00;;
20802;SDS011;10562;-33.856;151.182;2023-09-30T04:53:02;10.93;;;4.20;;
20802;SDS011;10562;-33.856;151.182;2023-09-30T04:55:36;14.02;;;4.18;;
20802;SDS011;10562;-33.856;151.182;2023-09-30T04:58:06;10.40;;;4.18;;
20802;SDS011;10562;-33.856;151.182;2023-09-30T05:00:37;10.18;;;4.20;;
20802;SDS011;10562;-33.856;151.182;2023-09-30T05:03:08;11.05;;;4.05;;
20802;SDS011;10562;-33.856;151.182;2023-09-30T05:05:39;11.82;;;4.00;;
20802;SDS011;10562;-33.856;151.182;2023-09-30T05:08:10;11.68;;;4.20;;
20802;SDS011;10562;-33.856;151.182;2023-09-30T05:10:42;14.82;;;4.30;;
20802;SDS011;10562;-33.856;151.182;2023-09-30T05:13:14;12.80;;;4.03;;
20802;SDS011;10562;-33.856;151.182;2023-09-30T05:15:45;10.48;;;4.05;;
20802;SDS011;10562;-33.856;151.182;2023-09-30T05:18:16;11.32;;;4.03;;
20802;SDS011;10562;-33.856;151.182;2023-09-30T05:20:46;10.75;;;3.80;;
20802;SDS011;10562;-33.856;151.182;2023-09-30T05:23:17;12.43;;;4.38;;
20802;SDS011;10562;-33.856;151.182;2023-09-30T05:25:50;11.02;;;3.78;;
20802;SDS011;10562;-33.856;151.182;2023-09-30T05:28:21;11.20;;;3.95;;
20802;SDS011;10562;-33.856;151.182;2023-09-30T05:30:54;11.75;;;3.92;;
20802;SDS011;10562;-33.856;151.182;2023-09-30T05:33:25;10.23;;;4.20;;
20802;SDS011;10562;-33.856;151.182;2023-09-30T05:35:55;15.13;;;4.25;;
20802;SDS011;10562;-33.856;151.182;2023-09-30T05:38:29;12.98;;;3.88;;
20802;SDS011;10562;-33.856;151.182;2023-09-30T05:41:02;14.32;;;3.95;;
20802;SDS011;10562;-33.856;151.182;2023-09-30T05:43:32;12.10;;;4.10;;
20802;SDS011;10562;-33.856;151.182;2023-09-30T05:46:03;18.15;;;4.30;;
20802;SDS011;10562;-33.856;151.182;2023-09-30T05:48:36;11.35;;;4.43;;
20802;SDS011;10562;-33.856;151.182;2023-09-30T05:51:07;10.25;;;4.15;;
20802;SDS011;10562;-33.856;151.182;2023-09-30T05:53:40;11.23;;;4.03;;
20802;SDS011;10562;-33.856;151.182;2023-09-30T05:56:15;13.57;;;4.15;;
20802;SDS011;10562;-33.856;151.182;2023-09-30T05:58:46;12.18;;;4.25;;
20802;SDS011;10562;-33.856;151.182;2023-09-30T06:01:17;10.57;;;3.95;;
20802;SDS011;10562;-33.856;151.182;2023-09-30T06:03:48;13.40;;;4.20;;
20802;SDS011;10562;-33.856;151.182;2023-09-30T06:06:19;15.90;;;4.40;;
20802;SDS011;10562;-33.856;151.182;2023-09-30T06:08:50;12.98;;;4.28;;
20802;SDS011;10562;-33.856;151.182;2023-09-30T06:11:23;13.10;;;4.07;;
20802;SDS011;10562;-33.856;151.182;2023-09-30T06:13:54;11.43;;;4.30;;
20802;SDS011;10562;-33.856;151.182;2023-09-30T06:16:27;12.55;;;4.00;;
20802;SDS011;10562;-33.856;151.182;2023-09-30T06:18:58;11.32;;;3.78;;
20802;SDS011;10562;-33.856;151.182;2023-09-30T06:21:29;13.38;;;4.22;;
20802;SDS011;10562;-33.856;151.182;2023-09-30T06:24:00;10.57;;;3.80;;
20802;SDS011;10562;-33.856;151.182;2023-09-30T06:26:33;11.88;;;4.15;;
20802;SDS011;10562;-33.856;151.182;2023-09-30T06:29:04;9.77;;;3.65;;
20802;SDS011;10562;-33.856;151.182;2023-09-30T06:31:35;12.55;;;4.10;;
20802;SDS011;10562;-33.856;151.182;2023-09-30T06:34:06;9.63;;;3.65;;
20802;SDS011;10562;-33.856;151.182;2023-09-30T06:36:37;8.38;;;3.70;;
20802;SDS011;10562;-33.856;151.182;2023-09-30T06:39:08;10.52;;;4.13;;
20802;SDS011;10562;-33.856;151.182;2023-09-30T06:41:40;11.40;;;3.75;;
20802;SDS011;10562;-33.856;151.182;2023-09-30T06:44:12;9.40;;;3.53;;
20802;SDS011;10562;-33.856;151.182;2023-09-30T06:46:43;8.18;;;3.70;;
20802;SDS011;10562;-33.856;151.182;2023-09-30T06:49:16;9.88;;;3.33;;
20802;SDS011;10562;-33.856;151.182;2023-09-30T06:51:47;8.55;;;3.13;;
20802;SDS011;10562;-33.856;151.182;2023-09-30T06:54:18;9.57;;;3.42;;
20802;SDS011;10562;-33.856;151.182;2023-09-30T06:56:51;12.98;;;3.72;;
20802;SDS011;10562;-33.856;151.182;2023-09-30T06:59:22;16.38;;;3.90;;
20802;SDS011;10562;-33.856;151.182;2023-09-30T07:01:53;12.75;;;3.83;;
20802;SDS011;10562;-33.856;151.182;2023-09-30T07:04:24;11.68;;;3.53;;
20802;SDS011;10562;-33.856;151.182;2023-09-30T07:06:54;8.80;;;3.42;;
20802;SDS011;10562;-33.856;151.182;2023-09-30T07:09:25;14.32;;;3.70;;
20802;SDS011;10562;-33.856;151.182;2023-09-30T07:11:58;11.27;;;3.72;;
20802;SDS011;10562;-33.856;151.182;2023-09-30T07:14:30;9.90;;;3.63;;
20802;SDS011;10562;-33.856;151.182;2023-09-30T07:17:01;12.40;;;3.50;;
20802;SDS011;10562;-33.856;151.182;2023-09-30T07:19:32;12.70;;;3.40;;
20802;SDS011;10562;-33.856;151.182;2023-09-30T07:22:03;12.07;;;3.85;;
20802;SDS011;10562;-33.856;151.182;2023-09-30T07:24:34;17.52;;;4.45;;
20802;SDS011;10562;-33.856;151.182;2023-09-30T07:27:07;12.18;;;3.50;;
20802;SDS011;10562;-33.856;151.182;2023-09-30T07:29:38;14.13;;;5.28;;
20802;SDS011;10562;-33.856;151.182;2023-09-30T07:32:09;9.65;;;3.60;;
20802;SDS011;10562;-33.856;151.182;2023-09-30T07:34:39;14.82;;;3.65;;
20802;SDS011;10562;-33.856;151.182;2023-09-30T07:37:10;13.65;;;3.80;;
20802;SDS011;10562;-33.856;151.182;2023-09-30T07:39:43;10.07;;;3.42;;
20802;SDS011;10562;-33.856;151.182;2023-09-30T07:42:16;13.07;;;4.18;;
20802;SDS011;10562;-33.856;151.182;2023-09-30T07:44:48;11.40;;;4.05;;
20802;SDS011;10562;-33.856;151.182;2023-09-30T07:47:19;10.35;;;3.67;;
20802;SDS011;10562;-33.856;151.182;2023-09-30T07:49:50;11.63;;;3.63;;
20802;SDS011;10562;-33.856;151.182;2023-09-30T07:52:20;12.38;;;3.63;;
20802;SDS011;10562;-33.856;151.182;2023-09-30T07:54:52;13.48;;;4.10;;
20802;SDS011;10562;-33.856;151.182;2023-09-30T07:57:25;12.55;;;3.80;;
20802;SDS011;10562;-33.856;151.182;2023-09-30T07:59:55;7.78;;;3.33;;
20802;SDS011;10562;-33.856;151.182;2023-09-30T08:02:26;8.90;;;3.40;;
20802;SDS011;10562;-33.856;151.182;2023-09-30T08:04:59;9.65;;;3.90;;
20802;SDS011;10562;-33.856;151.182;2023-09-30T08:07:32;15.40;;;4.13;;
20802;SDS011;10562;-33.856;151.182;2023-09-30T08:10:03;12.18;;;3.92;;
20802;SDS011;10562;-33.856;151.182;2023-09-30T08:12:41;12.00;;;3.92;;
20802;SDS011;10562;-33.856;151.182;2023-09-30T08:15:14;10.65;;;3.88;;
20802;SDS011;10562;-33.856;151.182;2023-09-30T08:17:45;18.08;;;3.83;;
20802;SDS011;10562;-33.856;151.182;2023-09-30T08:20:16;12.52;;;3.90;;
20802;SDS011;10562;-33.856;151.182;2023-09-30T08:22:47;8.98;;;3.10;;
20802;SDS011;10562;-33.856;151.182;2023-09-30T08:25:17;13.30;;;4.00;;
20802;SDS011;10562;-33.856;151.182;2023-09-30T08:27:50;9.77;;;3.40;;
20802;SDS011;10562;-33.856;151.182;2023-09-30T08:30:21;9.55;;;3.72;;
20802;SDS011;10562;-33.856;151.182;2023-09-30T08:32:52;13.57;;;3.45;;
20802;SDS011;10562;-33.856;151.182;2023-09-30T08:35:22;14.27;;;3.90;;
20802;SDS011;10562;-33.856;151.182;2023-09-30T08:37:53;9.07;;;3.05;;
20802;SDS011;10562;-33.856;151.182;2023-09-30T08:40:24;12.35;;;3.70;;
20802;SDS011;10562;-33.856;151.182;2023-09-30T08:42:57;8.63;;;3.58;;
20802;SDS011;10562;-33.856;151.182;2023-09-30T08:45:28;13.55;;;3.80;;
20802;SDS011;10562;-33.856;151.182;2023-09-30T08:48:02;11.98;;;3.65;;
20802;SDS011;10562;-33.856;151.182;2023-09-30T08:50:34;10.32;;;3.40;;
20802;SDS011;10562;-33.856;151.182;2023-09-30T08:53:09;13.32;;;3.53;;
20802;SDS011;10562;-33.856;151.182;2023-09-30T08:55:41;13.70;;;3.70;;
20802;SDS011;10562;-33.856;151.182;2023-09-30T08:58:17;12.77;;;3.47;;
20802;SDS011;10562;-33.856;151.182;2023-09-30T09:00:48;11.10;;;3.05;;
20802;SDS011;10562;-33.856;151.182;2023-09-30T09:03:19;9.18;;;3.15;;
20802;SDS011;10562;-33.856;151.182;2023-09-30T09:05:54;13.68;;;3.42;;
20802;SDS011;10562;-33.856;151.182;2023-09-30T09:08:26;8.32;;;3.30;;
20802;SDS011;10562;-33.856;151.182;2023-09-30T09:10:58;8.07;;;2.92;;
20802;SDS011;10562;-33.856;151.182;2023-09-30T09:13:44;10.02;;;3.35;;
20802;SDS011;10562;-33.856;151.182;2023-09-30T09:16:17;9.07;;;3.00;;
20802;SDS011;10562;-33.856;151.182;2023-09-30T09:18:48;9.98;;;3.13;;
20802;SDS011;10562;-33.856;151.182;2023-09-30T09:21:20;12.07;;;3.35;;
20802;SDS011;10562;-33.856;151.182;2023-09-30T09:23:53;9.65;;;3.35;;
20802;SDS011;10562;-33.856;151.182;2023-09-30T09:26:25;9.77;;;3.10;;
20802;SDS011;10562;-33.856;151.182;2023-09-30T09:28:58;12.50;;;3.67;;
20802;SDS011;10562;-33.856;151.182;2023-09-30T09:31:30;12.00;;;3.58;;
20802;SDS011;10562;-33.856;151.182;2023-09-30T09:34:02;10.35;;;3.50;;
20802;SDS011;10562;-33.856;151.182;2023-09-30T09:36:44;11.60;;;3.53;;
20802;SDS011;10562;-33.856;151.182;2023-09-30T09:39:15;12.35;;;3.70;;
20802;SDS011;10562;-33.856;151.182;2023-09-30T09:41:58;12.48;;;3.80;;
20802;SDS011;10562;-33.856;151.182;2023-09-30T09:44:31;13.55;;;3.75;;
20802;SDS011;10562;-33.856;151.182;2023-09-30T09:47:05;13.38;;;4.38;;
20802;SDS011;10562;-33.856;151.182;2023-09-30T09:49:38;14.23;;;3.78;;
20802;SDS011;10562;-33.856;151.182;2023-09-30T09:52:09;14.65;;;3.58;;
20802;SDS011;10562;-33.856;151.182;2023-09-30T09:54:42;16.95;;;3.95;;
20802;SDS011;10562;-33.856;151.182;2023-09-30T09:57:14;19.77;;;3.90;;
20802;SDS011;10562;-33.856;151.182;2023-09-30T09:59:48;11.65;;;3.75;;
20802;SDS011;10562;-33.856;151.182;2023-09-30T10:02:18;12.05;;;4.03;;
20802;SDS011;10562;-33.856;151.182;2023-09-30T10:04:50;15.90;;;4.03;;
20802;SDS011;10562;-33.856;151.182;2023-09-30T10:07:22;9.07;;;3.70;;
20802;SDS011;10562;-33.856;151.182;2023-09-30T10:09:58;16.55;;;4.32;;
20802;SDS011;10562;-33.856;151.182;2023-09-30T10:12:36;18.65;;;4.28;;
20802;SDS011;10562;-33.856;151.182;2023-09-30T10:18:10;15.15;;;4.40;;
20802;SDS011;10562;-33.856;151.182;2023-09-30T10:20:41;18.08;;;4.40;;
20802;SDS011;10562;-33.856;151.182;2023-09-30T10:23:20;15.77;;;4.55;;
20802;SDS011;10562;-33.856;151.182;2023-09-30T10:25:54;14.65;;;4.40;;
20802;SDS011;10562;-33.856;151.182;2023-09-30T10:28:44;15.93;;;4.55;;
20802;SDS011;10562;-33.856;151.182;2023-09-30T10:31:19;12.32;;;4.30;;
20802;SDS011;10562;-33.856;151.182;2023-09-30T10:36:52;15.85;;;4.22;;
20802;SDS011;10562;-33.856;151.182;2023-09-30T10:42:45;16.20;;;4.60;;
20802;SDS011;10562;-33.856;151.182;2023-09-30T10:48:36;16.58;;;4.40;;
20802;SDS011;10562;-33.856;151.182;2023-09-30T10:51:11;15.38;;;4.45;;
20802;SDS011;10562;-33.856;151.182;2023-09-30T10:53:47;12.93;;;4.18;;
20802;SDS011;10562;-33.856;151.182;2023-09-30T10:56:22;15.70;;;4.32;;
20802;SDS011;10562;-33.856;151.182;2023-09-30T10:59:01;13.02;;;4.35;;
20802;SDS011;10562;-33.856;151.182;2023-09-30T11:01:32;13.00;;;4.35;;
20802;SDS011;10562;-33.856;151.182;2023-09-30T11:04:05;16.48;;;4.70;;
20802;SDS011;10562;-33.856;151.182;2023-09-30T11:06:39;14.90;;;4.68;;
20802;SDS011;10562;-33.856;151.182;2023-09-30T11:09:14;17.23;;;4.88;;
20802;SDS011;10562;-33.856;151.182;2023-09-30T11:11:46;16.30;;;4.80;;
20802;SDS011;10562;-33.856;151.182;2023-09-30T11:14:18;14.98;;;4.78;;
20802;SDS011;10562;-33.856;151.182;2023-09-30T11:16:49;16.15;;;5.13;;
20802;SDS011;10562;-33.856;151.182;2023-09-30T11:19:24;15.85;;;4.78;;
20802;SDS011;10562;-33.856;151.182;2023-09-30T11:21:57;17.13;;;4.35;;
20802;SDS011;10562;-33.856;151.182;2023-09-30T11:24:28;16.90;;;4.80;;
20802;SDS011;10562;-33.856;151.182;2023-09-30T11:26:59;17.40;;;4.18;;
20802;SDS011;10562;-33.856;151.182;2023-09-30T11:29:30;13.27;;;4.32;;
20802;SDS011;10562;-33.856;151.182;2023-09-30T11:32:01;16.52;;;4.65;;
20802;SDS011;10562;-33.856;151.182;2023-09-30T11:34:34;13.15;;;4.40;;
20802;SDS011;10562;-33.856;151.182;2023-09-30T11:37:08;18.05;;;5.10;;
20802;SDS011;10562;-33.856;151.182;2023-09-30T11:39:39;18.88;;;4.70;;
20802;SDS011;10562;-33.856;151.182;2023-09-30T11:42:14;23.02;;;4.90;;
20802;SDS011;10562;-33.856;151.182;2023-09-30T11:44:46;19.17;;;4.90;;
20802;SDS011;10562;-33.856;151.182;2023-09-30T11:47:27;17.35;;;4.38;;
20802;SDS011;10562;-33.856;151.182;2023-09-30T11:50:02;23.50;;;5.30;;
20802;SDS011;10562;-33.856;151.182;2023-09-30T11:52:33;20.02;;;5.25;;
20802;SDS011;10562;-33.856;151.182;2023-09-30T11:55:06;18.48;;;5.18;;
20802;SDS011;10562;-33.856;151.182;2023-09-30T11:57:38;20.75;;;5.05;;
20802;SDS011;10562;-33.856;151.182;2023-09-30T12:00:09;20.52;;;4.97;;
20802;SDS011;10562;-33.856;151.182;2023-09-30T12:02:41;17.63;;;4.65;;
20802;SDS011;10562;-33.856;151.182;2023-09-30T12:05:14;19.40;;;5.03;;
20802;SDS011;10562;-33.856;151.182;2023-09-30T12:07:48;20.55;;;5.10;;
20802;SDS011;10562;-33.856;151.182;2023-09-30T12:10:19;16.42;;;4.47;;
20802;SDS011;10562;-33.856;151.182;2023-09-30T12:12:49;23.65;;;5.30;;
20802;SDS011;10562;-33.856;151.182;2023-09-30T12:15:20;18.58;;;4.82;;
20802;SDS011;10562;-33.856;151.182;2023-09-30T12:17:51;21.75;;;5.20;;
20802;SDS011;10562;-33.856;151.182;2023-09-30T12:20:23;16.95;;;4.75;;
20802;SDS011;10562;-33.856;151.182;2023-09-30T12:22:54;22.90;;;5.28;;
20802;SDS011;10562;-33.856;151.182;2023-09-30T12:25:25;15.85;;;4.70;;
20802;SDS011;10562;-33.856;151.182;2023-09-30T12:27:56;17.38;;;4.78;;
20802;SDS011;10562;-33.856;151.182;2023-09-30T12:30:26;21.80;;;4.95;;
20802;SDS011;10562;-33.856;151.182;2023-09-30T12:32:58;23.48;;;4.95;;
20802;SDS011;10562;-33.856;151.182;2023-09-30T12:35:31;18.48;;;5.10;;
20802;SDS011;10562;-33.856;151.182;2023-09-30T12:38:01;22.40;;;5.28;;
20802;SDS011;10562;-33.856;151.182;2023-09-30T12:40:32;21.88;;;5.43;;
20802;SDS011;10562;-33.856;151.182;2023-09-30T12:43:03;18.38;;;5.13;;
20802;SDS011;10562;-33.856;151.182;2023-09-30T12:45:34;26.92;;;5.15;;
20802;SDS011;10562;-33.856;151.182;2023-09-30T12:48:05;17.13;;;5.00;;
20802;SDS011;10562;-33.856;151.182;2023-09-30T12:50:37;17.52;;;4.60;;
20802;SDS011;10562;-33.856;151.182;2023-09-30T12:53:08;19.10;;;5.00;;
20802;SDS011;10562;-33.856;151.182;2023-09-30T12:55:39;19.20;;;4.90;;
20802;SDS011;10562;-33.856;151.182;2023-09-30T12:58:10;22.75;;;5.45;;
20802;SDS011;10562;-33.856;151.182;2023-09-30T13:00:41;16.45;;;5.03;;
20802;SDS011;10562;-33.856;151.182;2023-09-30T13:03:13;18.02;;;4.88;;
20802;SDS011;10562;-33.856;151.182;2023-09-30T13:05:46;23.02;;;5.43;;
20802;SDS011;10562;-33.856;151.182;2023-09-30T13:08:16;22.23;;;5.45;;
20802;SDS011;10562;-33.856;151.182;2023-09-30T13:10:47;27.45;;;5.55;;
20802;SDS011;10562;-33.856;151.182;2023-09-30T13:13:18;20.20;;;5.40;;
20802;SDS011;10562;-33.856;151.182;2023-09-30T13:15:49;20.83;;;5.15;;
20802;SDS011;10562;-33.856;151.182;2023-09-30T13:18:20;21.50;;;5.80;;
20802;SDS011;10562;-33.856;151.182;2023-09-30T13:20:53;23.40;;;5.30;;
20802;SDS011;10562;-33.856;151.182;2023-09-30T13:23:23;21.83;;;5.63;;
20802;SDS011;10562;-33.856;151.182;2023-09-30T13:25:55;22.25;;;5.18;;
20802;SDS011;10562;-33.856;151.182;2023-09-30T13:28:26;23.27;;;5.35;;
20802;SDS011;10562;-33.856;151.182;2023-09-30T13:30:57;18.65;;;5.60;;
20802;SDS011;10562;-33.856;151.182;2023-09-30T13:33:27;29.33;;;5.97;;
20802;SDS011;10562;-33.856;151.182;2023-09-30T13:36:00;27.33;;;5.95;;
20802;SDS011;10562;-33.856;151.182;2023-09-30T13:38:31;24.30;;;5.55;;
20802;SDS011;10562;-33.856;151.182;2023-09-30T13:41:02;19.20;;;5.43;;
20802;SDS011;10562;-33.856;151.182;2023-09-30T13:43:32;25.88;;;5.50;;
20802;SDS011;10562;-33.856;151.182;2023-09-30T13:46:04;24.85;;;5.90;;
20802;SDS011;10562;-33.856;151.182;2023-09-30T13:48:34;28.35;;;5.68;;
20802;SDS011;10562;-33.856;151.182;2023-09-30T13:51:07;23.08;;;5.32;;
20802;SDS011;10562;-33.856;151.182;2023-09-30T13:53:39;24.55;;;6.13;;
20802;SDS011;10562;-33.856;151.182;2023-09-30T13:56:09;23.92;;;5.50;;
20802;SDS011;10562;-33.856;151.182;2023-09-30T13:58:40;19.45;;;5.60;;
20802;SDS011;10562;-33.856;151.182;2023-09-30T14:01:13;23.15;;;6.35;;
20802;SDS011;10562;-33.856;151.182;2023-09-30T14:03:45;26.95;;;6.00;;
20802;SDS011;10562;-33.856;151.182;2023-09-30T14:06:23;27.45;;;5.93;;
20802;SDS011;10562;-33.856;151.182;2023-09-30T14:08:55;29.45;;;6.25;;
20802;SDS011;10562;-33.856;151.182;2023-09-30T14:11:26;23.88;;;5.53;;
20802;SDS011;10562;-33.856;151.182;2023-09-30T14:13:57;24.00;;;5.80;;
20802;SDS011;10562;-33.856;151.182;2023-09-30T14:16:27;24.85;;;5.70;;
20802;SDS011;10562;-33.856;151.182;2023-09-30T14:18:58;20.65;;;6.07;;
20802;SDS011;10562;-33.856;151.182;2023-09-30T14:21:31;33.38;;;7.05;;
20802;SDS011;10562;-33.856;151.182;2023-09-30T14:24:02;23.48;;;5.90;;
20802;SDS011;10562;-33.856;151.182;2023-09-30T14:26:33;21.33;;;5.80;;
20802;SDS011;10562;-33.856;151.182;2023-09-30T14:29:04;21.05;;;5.50;;
20802;SDS011;10562;-33.856;151.182;2023-09-30T14:31:35;20.70;;;5.90;;
20802;SDS011;10562;-33.856;151.182;2023-09-30T14:34:05;24.52;;;6.25;;
20802;SDS011;10562;-33.856;151.182;2023-09-30T14:36:38;29.75;;;6.20;;
20802;SDS011;10562;-33.856;151.182;2023-09-30T14:39:09;21.90;;;5.88;;